Time;durP1;ratioP1;P1;durP2;ratioP2;P2;SDS_P1;SDS_P2;PMS_P1;PMS_P2;Temp;Humidity;BMP_temperature;BMP_pressure;BME280_temperature;BME280_humidity;BME280_pressure;Samples;Min_cycle;Max_cycle;Signal;HPM_P1;HPM_P2
2022/02/02 00:01:14;;;;;;;0.10;0.10;;;6.70;99.90;;;;;;5073562;28;20037;-86
2022/02/02 00:03:46;;;;;;;0.10;0.10;;;6.20;99.90;;;;;;5072163;28;20048;-82
2022/02/02 00:06:19;;;;;;;0.10;0.10;;;6.30;99.90;;;;;;5072546;28;20489;-82
2022/02/02 00:08:56;;;;;;;0.10;0.10;;;6.20;99.90;;;;;;5056480;28;20049;-82
2022/02/02 00:14:12;;;;;;;0.10;0.10;;;6.50;99.90;;;;;;5073567;28;20045;-82
2022/02/02 00:16:46;;;;;;;0.10;0.10;;;6.40;99.90;;;;;;5072852;28;20037;-83
2022/02/02 00:19:23;;;;;;;0.10;0.10;;;6.40;99.90;;;;;;5072973;28;20768;-82
2022/02/02 00:21:55;;;;;;;0.03;0.03;;;6.40;99.90;;;;;;5072607;28;20033;-82
2022/02/02 00:24:37;;;;;;;0.10;0.10;;;6.40;99.90;;;;;;5072338;28;20037;-87
2022/02/02 00:27:07;;;;;;;0.10;0.10;;;6.40;99.90;;;;;;5071686;28;20132;-82
2022/02/02 00:29:42;;;;;;;0.10;0.10;;;6.40;99.90;;;;;;5070844;28;20140;-86
2022/02/02 00:34:41;;;;;;;0.10;0.10;;;6.40;99.90;;;;;;5072310;28;20066;-86
2022/02/02 00:37:08;;;;;;;0.10;0.10;;;6.40;99.90;;;;;;5070814;28;20052;-82
2022/02/02 00:39:35;;;;;;;0.10;0.10;;;6.40;99.90;;;;;;5054651;28;20048;-86
2022/02/02 00:42:03;;;;;;;0.10;0.10;;;6.40;99.90;;;;;;5070828;28;20485;-87
2022/02/02 00:44:30;;;;;;;0.10;0.10;;;6.40;99.90;;;;;;5054757;28;20041;-86
2022/02/02 00:46:57;;;;;;;0.10;0.10;;;6.40;99.90;;;;;;5070989;28;20167;-82
2022/02/02 00:49:24;;;;;;;0.10;0.10;;;6.60;99.90;;;;;;5054383;28;20144;-86
2022/02/02 00:51:56;;;;;;;0.10;0.10;;;6.80;99.90;;;;;;5053743;28;20505;-82
2022/02/02 00:54:27;;;;;;;0.10;0.10;;;6.40;99.90;;;;;;5071385;28;20082;-87
2022/02/02 00:56:54;;;;;;;0.10;0.10;;;6.40;99.90;;;;;;5087211;28;20044;-82
2022/02/02 00:59:23;;;;;;;0.10;0.10;;;6.30;99.90;;;;;;5070276;28;20037;-82
2022/02/02 01:01:51;;;;;;;0.10;0.10;;;6.40;99.90;;;;;;5069989;28;20405;-83
2022/02/02 01:04:18;;;;;;;0.10;0.10;;;6.40;99.90;;;;;;5070690;28;20051;-86
2022/02/02 01:08:10;;;;;;;0.10;0.10;;;6.40;99.90;;;;;;5087234;28;20079;-86
2022/02/02 01:20:48;;;;;;;0.10;0.10;;;6.10;99.90;;;;;;5000727;28;20199;-87
2022/02/02 01:28:48;;;;;;;0.10;0.10;;;5.90;99.90;;;;;;5017601;28;20042;-86
2022/02/02 01:31:16;;;;;;;0.10;0.10;;;5.80;99.90;;;;;;5069900;28;20033;-86
2022/02/02 01:33:43;;;;;;;0.10;0.10;;;5.80;99.90;;;;;;5069502;28;20500;-82
2022/02/02 01:36:10;;;;;;;0.10;0.10;;;5.70;99.90;;;;;;5069784;28;20036;-82
2022/02/02 01:38:37;;;;;;;0.10;0.10;;;5.70;99.90;;;;;;5069571;28;20052;-82
2022/02/02 01:41:14;;;;;;;0.10;0.10;;;5.70;99.90;;;;;;5053747;28;20041;-86
2022/02/02 01:43:49;;;;;;;0.10;0.10;;;5.70;99.90;;;;;;5071153;28;20041;-81
2022/02/02 01:46:19;;;;;;;0.10;0.10;;;5.60;99.90;;;;;;5070703;28;20068;-86
2022/02/02 01:48:55;;;;;;;0.10;0.10;;;5.90;99.90;;;;;;5069656;28;20068;-86
2022/02/02 01:56:17;;;;;;;0.10;0.10;;;5.70;99.90;;;;;;5085744;28;20071;-82
2022/02/02 01:59:00;;;;;;;0.10;0.10;;;5.70;99.90;;;;;;5069565;28;20045;-86
2022/02/02 02:01:29;;;;;;;0.10;0.10;;;5.70;99.90;;;;;;5070070;28;20120;-86
2022/02/02 02:03:58;;;;;;;0.10;0.10;;;5.70;99.90;;;;;;5068996;28;20102;-86
2022/02/02 02:06:25;;;;;;;1.85;0.30;;;5.80;99.90;;;;;;5086749;28;20143;-85
2022/02/02 02:08:52;;;;;;;0.10;0.10;;;5.80;99.90;;;;;;5069305;28;20135;-82
2022/02/02 02:11:21;;;;;;;0.10;0.10;;;5.80;99.90;;;;;;5069812;28;20041;-82
2022/02/02 02:16:25;;;;;;;0.10;0.10;;;5.80;99.90;;;;;;5071533;28;20098;-86
2022/02/02 02:18:53;;;;;;;0.10;0.10;;;5.90;99.90;;;;;;5052912;28;20494;-87
2022/02/02 02:21:20;;;;;;;0.10;0.10;;;5.80;99.90;;;;;;5069526;28;20067;-87
2022/02/02 02:23:48;;;;;;;0.10;0.10;;;5.90;99.90;;;;;;5068781;28;20128;-82
2022/02/02 02:26:23;;;;;;;0.10;0.10;;;6.70;99.90;;;;;;5070071;28;20485;-86
2022/02/02 02:29:15;;;;;;;0.10;0.10;;;5.90;99.90;;;;;;5070731;28;20075;-86
2022/02/02 02:56:01;;;;;;;0.10;0.10;;;5.80;99.90;;;;;;5071211;28;20056;-82
2022/02/02 03:58:46;;;;;;;0.10;0.10;;;5.40;99.90;;;;;;5031370;28;20054;-87
2022/02/02 04:01:35;;;;;;;0.10;0.10;;;5.40;99.90;;;;;;5036132;28;20566;-82
2022/02/02 04:06:33;;;;;;;0.20;0.20;;;5.40;99.90;;;;;;5072324;28;20178;-86
2022/02/02 04:08:59;;;;;;;0.10;0.10;;;5.50;99.90;;;;;;5071646;28;20390;-82
2022/02/02 04:11:37;;;;;;;0.10;0.10;;;5.50;99.90;;;;;;5071525;28;20040;-82
2022/02/02 04:55:12;;;;;;;0.10;0.10;;;5.60;99.90;;;;;;5074031;28;20490;-87
2022/02/02 05:03:40;;;;;;;0.10;0.10;;;5.60;99.90;;;;;;5072508;28;20071;-82
2022/02/02 05:08:37;;;;;;;0.10;0.10;;;5.70;99.90;;;;;;5071607;28;20045;-82
2022/02/02 05:11:32;;;;;;;0.10;0.10;;;5.70;99.90;;;;;;5071767;28;20114;-86
2022/02/02 05:29:20;;;;;;;0.10;0.10;;;5.50;99.90;;;;;;5072303;28;20139;-86
2022/02/02 05:41:13;;;;;;;0.10;0.10;;;5.60;99.90;;;;;;5071076;28;20045;-86
2022/02/02 05:44:58;;;;;;;0.10;0.10;;;5.60;99.90;;;;;;5062701;28;20465;-82
2022/02/02 05:52:38;;;;;;;0.10;0.10;;;5.60;99.90;;;;;;5051290;28;20082;-86
2022/02/02 05:55:05;;;;;;;0.10;0.10;;;5.60;99.90;;;;;;5034010;28;20061;-82
2022/02/02 05:57:32;;;;;;;0.08;0.08;;;5.60;99.90;;;;;;5066243;28;20045;-86
2022/02/02 05:59:59;;;;;;;0.10;0.10;;;5.60;99.90;;;;;;5049931;28;20124;-82
2022/02/02 06:02:32;;;;;;;0.10;0.10;;;5.60;99.90;;;;;;5033851;28;20068;-86
2022/02/02 06:05:06;;;;;;;0.10;0.10;;;5.60;99.90;;;;;;5049760;28;20040;-86
2022/02/02 06:07:38;;;;;;;0.10;0.10;;;5.60;99.90;;;;;;5049789;28;20049;-82
2022/02/02 06:10:08;;;;;;;0.10;0.10;;;5.70;99.90;;;;;;5049590;28;20122;-86
2022/02/02 06:12:35;;;;;;;0.10;0.10;;;5.60;99.90;;;;;;5033501;28;20041;-82
2022/02/02 06:15:12;;;;;;;0.10;0.10;;;5.60;99.90;;;;;;5049500;28;20057;-87
2022/02/02 06:17:44;;;;;;;0.10;0.10;;;5.60;99.90;;;;;;5049487;28;20099;-82
2022/02/02 06:20:12;;;;;;;0.10;0.10;;;5.60;99.90;;;;;;5052826;28;20063;-85
2022/02/02 06:22:47;;;;;;;0.10;0.10;;;5.60;99.90;;;;;;5050175;28;20046;-86
2022/02/02 06:25:21;;;;;;;0.10;0.10;;;5.60;99.90;;;;;;5049496;28;20044;-87
2022/02/02 06:28:07;;;;;;;0.10;0.10;;;5.60;99.90;;;;;;5066528;28;20284;-86
2022/02/02 06:30:34;;;;;;;0.10;0.10;;;6.00;99.90;;;;;;5049477;28;20041;-82
2022/02/02 06:33:07;;;;;;;0.10;0.10;;;5.60;99.90;;;;;;5032898;28;20044;-86
2022/02/02 06:35:35;;;;;;;0.10;0.10;;;5.60;99.90;;;;;;5066081;28;20042;-86
2022/02/02 06:38:03;;;;;;;0.10;0.10;;;5.50;99.90;;;;;;5049444;28;20044;-82
2022/02/02 06:40:30;;;;;;;0.10;0.10;;;5.60;99.90;;;;;;5065760;28;20038;-86
2022/02/02 06:42:57;;;;;;;0.10;0.10;;;5.50;99.90;;;;;;5067508;28;20037;-87
2022/02/02 06:45:24;;;;;;;0.05;0.05;;;5.50;99.90;;;;;;5070116;28;20498;-87
2022/02/02 06:47:52;;;;;;;0.28;0.28;;;5.50;99.90;;;;;;5053307;28;20494;-87
2022/02/02 06:50:27;;;;;;;0.10;0.10;;;5.50;99.90;;;;;;5069449;28;20487;-82
2022/02/02 06:53:05;;;;;;;0.10;0.10;;;5.50;99.90;;;;;;5038225;28;20052;-82
2022/02/02 06:55:42;;;;;;;0.10;0.10;;;5.50;99.90;;;;;;5069843;28;20107;-87
2022/02/02 06:58:42;;;;;;;0.03;0.03;;;5.60;99.90;;;;;;5069480;28;20041;-82
2022/02/02 07:02:03;;;;;;;0.10;0.10;;;5.50;99.90;;;;;;5052645;28;20512;-82
2022/02/02 07:04:19;;;;;;;0.10;0.10;;;5.50;99.90;;;;;;5063634;28;20041;-82
2022/02/02 07:07:09;;;;;;;0.10;0.10;;;5.50;99.90;;;;;;5052740;28;20042;-86
2022/02/02 07:10:08;;;;;;;0.10;0.10;;;5.50;99.90;;;;;;5071841;28;20088;-86
2022/02/02 07:12:54;;;;;;;0.10;0.10;;;5.50;99.90;;;;;;5054451;28;20114;-86
2022/02/02 07:15:41;;;;;;;0.10;0.10;;;5.60;99.90;;;;;;5077128;28;20183;-86
2022/02/02 07:20:55;;;;;;;0.10;0.10;;;5.60;99.90;;;;;;5051835;28;20041;-82
2022/02/02 07:28:44;;;;;;;0.10;0.10;;;5.70;99.90;;;;;;5051807;28;20037;-82
2022/02/02 07:34:21;;;;;;;0.10;0.10;;;5.60;99.90;;;;;;5083501;28;20470;-82
2022/02/02 07:36:53;;;;;;;0.10;0.10;;;5.50;99.90;;;;;;5043807;28;20041;-86
2022/02/02 07:39:24;;;;;;;0.10;0.10;;;5.60;99.90;;;;;;5065616;28;20041;-86
2022/02/02 07:41:58;;;;;;;0.10;0.10;;;5.50;99.90;;;;;;5052084;28;20030;-82
2022/02/02 07:44:28;;;;;;;0.10;0.10;;;5.60;99.90;;;;;;5052140;28;20030;-82
2022/02/02 07:46:59;;;;;;;0.10;0.10;;;5.60;99.90;;;;;;5053747;28;20034;-86
2022/02/02 07:49:33;;;;;;;0.10;0.10;;;5.60;99.90;;;;;;5050312;28;20053;-84
2022/02/02 07:52:00;;;;;;;0.10;0.10;;;5.70;99.90;;;;;;5067954;28;20080;-88
2022/02/02 07:54:33;;;;;;;0.10;0.10;;;5.70;99.90;;;;;;5048639;28;20052;-89
2022/02/02 07:57:05;;;;;;;0.10;0.10;;;5.70;99.90;;;;;;5057445;28;20033;-91
2022/02/02 08:02:00;;;;;;;0.10;0.10;;;5.80;99.90;;;;;;5072076;28;20053;-84
2022/02/02 08:04:29;;;;;;;0.08;0.08;;;5.80;99.90;;;;;;5071794;28;20375;-84
2022/02/02 08:06:57;;;;;;;0.15;0.15;;;5.80;99.90;;;;;;5072042;28;20063;-83
2022/02/02 08:09:33;;;;;;;0.10;0.10;;;5.80;99.90;;;;;;5071642;28;20128;-84
2022/02/02 08:12:02;;;;;;;0.10;0.10;;;5.80;99.90;;;;;;5071545;28;20036;-87
2022/02/02 08:14:30;;;;;;;0.00;0.00;;;5.90;99.90;;;;;;5071757;28;20044;-88
2022/02/02 08:16:56;;;;;;;0.10;0.10;;;5.80;99.90;;;;;;5087880;28;20115;-87
2022/02/02 08:19:23;;;;;;;0.10;0.10;;;5.70;99.90;;;;;;5055282;28;20167;-84
2022/02/02 08:21:50;;;;;;;0.10;0.10;;;5.80;99.90;;;;;;5070402;28;20106;-83
2022/02/02 08:24:18;;;;;;;0.10;0.10;;;5.80;99.90;;;;;;5055043;28;20037;-83
2022/02/02 08:26:46;;;;;;;0.10;0.10;;;5.80;99.90;;;;;;5077613;28;20041;-85
2022/02/02 08:29:13;;;;;;;0.10;0.10;;;5.80;99.90;;;;;;5052146;28;20103;-87
2022/02/02 08:31:40;;;;;;;0.10;0.10;;;5.80;99.90;;;;;;5058273;28;20041;-83
2022/02/02 08:34:11;;;;;;;0.10;0.10;;;5.60;99.90;;;;;;5052757;28;20072;-87
2022/02/02 08:36:39;;;;;;;0.10;0.10;;;6.50;99.90;;;;;;5037750;28;20111;-83
2022/02/02 08:41:45;;;;;;;2.80;0.75;;;5.80;99.90;;;;;;5049149;28;20049;-87
2022/02/02 08:44:19;;;;;;;0.10;0.10;;;5.80;99.90;;;;;;5065696;28;20037;-83
2022/02/02 08:47:01;;;;;;;0.00;0.00;;;5.90;99.90;;;;;;5071724;28;20072;-88
2022/02/02 08:49:31;;;;;;;0.10;0.10;;;5.90;99.90;;;;;;5051946;28;20076;-86
2022/02/02 08:52:00;;;;;;;0.10;0.10;;;5.90;99.90;;;;;;5051398;28;20382;-89
2022/02/02 08:54:34;;;;;;;0.10;0.10;;;6.00;99.90;;;;;;5035463;28;20091;-89
2022/02/02 08:57:19;;;;;;;0.10;0.10;;;6.00;99.90;;;;;;5035140;28;20124;-85
2022/02/02 08:59:59;;;;;;;0.45;0.45;;;6.00;99.90;;;;;;5032749;28;20092;-87
2022/02/02 09:02:31;;;;;;;0.10;0.10;;;6.00;99.90;;;;;;5048131;28;20483;-87
2022/02/02 09:07:43;;;;;;;0.10;0.10;;;6.10;99.90;;;;;;5066543;28;20088;-87
2022/02/02 09:10:17;;;;;;;0.10;0.10;;;6.50;99.90;;;;;;5033714;28;20073;-86
2022/02/02 09:36:26;;;;;;;0.10;0.10;;;6.60;99.90;;;;;;5069046;28;20498;-87
2022/02/02 09:38:56;;;;;;;0.10;0.10;;;6.60;99.90;;;;;;5069139;28;20049;-83
2022/02/02 09:41:46;;;;;;;0.10;0.10;;;6.70;99.90;;;;;;5070287;28;20124;-82
2022/02/02 09:44:17;;;;;;;0.10;0.10;;;6.70;99.90;;;;;;5055415;28;20080;-83
2022/02/02 09:46:56;;;;;;;0.03;0.03;;;6.70;99.90;;;;;;5069452;28;20382;-86
2022/02/02 09:49:37;;;;;;;0.10;0.10;;;6.70;99.90;;;;;;5069486;28;20126;-86
2022/02/02 09:52:12;;;;;;;0.10;0.10;;;6.70;99.90;;;;;;5069512;28;20033;-83
2022/02/02 09:57:32;;;;;;;0.05;0.05;;;6.80;99.90;;;;;;5070423;28;20041;-83
2022/02/02 10:00:17;;;;;;;0.10;0.10;;;6.90;99.90;;;;;;5071969;28;20045;-82
2022/02/02 10:05:42;;;;;;;0.10;0.10;;;6.90;99.90;;;;;;5085920;28;20037;-83
2022/02/02 10:13:47;;;;;;;0.00;0.00;;;6.90;99.90;;;;;;5069781;28;20041;-84
2022/02/02 10:16:18;;;;;;;0.10;0.10;;;6.90;99.90;;;;;;5086298;28;20076;-84
2022/02/02 10:18:45;;;;;;;0.10;0.10;;;7.00;99.90;;;;;;5072548;28;20041;-83
2022/02/02 10:21:13;;;;;;;0.10;0.10;;;7.00;99.90;;;;;;5073773;28;20045;-82
2022/02/02 10:23:41;;;;;;;1.35;1.10;;;7.00;99.90;;;;;;5073511;28;20037;-89
2022/02/02 10:26:22;;;;;;;0.10;0.10;;;7.00;99.90;;;;;;5067267;28;20036;-88
2022/02/02 10:28:50;;;;;;;0.10;0.10;;;7.00;99.90;;;;;;5051700;28;20041;-83
2022/02/02 10:31:18;;;;;;;0.10;0.10;;;6.90;99.90;;;;;;5052665;28;20480;-83
2022/02/02 10:33:44;;;;;;;0.10;0.10;;;7.00;99.90;;;;;;5036583;28;20564;-87
2022/02/02 10:36:23;;;;;;;0.10;0.10;;;7.10;99.90;;;;;;5051621;28;20049;-84
2022/02/02 10:39:08;;;;;;;0.10;0.10;;;7.10;99.90;;;;;;5063650;28;20073;-83
2022/02/02 10:41:48;;;;;;;0.10;0.10;;;7.20;99.90;;;;;;5053346;28;20082;-82
2022/02/02 10:44:23;;;;;;;0.10;0.10;;;7.20;99.90;;;;;;5063278;28;20037;-83
2022/02/02 10:52:21;;;;;;;0.10;0.10;;;7.20;99.90;;;;;;5053298;28;20049;-85
2022/02/02 10:55:16;;;;;;;0.10;0.10;;;7.20;99.90;;;;;;5040118;28;20041;-84
2022/02/02 10:58:20;;;;;;;0.00;0.00;;;7.30;99.90;;;;;;5078071;28;20103;-85
2022/02/02 11:08:53;;;;;;;0.10;0.10;;;7.50;99.90;;;;;;5072002;28;20049;-85
2022/02/02 11:11:20;;;;;;;0.10;0.10;;;7.70;99.90;;;;;;5068668;28;20045;-83
2022/02/02 11:13:49;;;;;;;0.10;0.10;;;7.70;99.90;;;;;;5051427;28;20044;-83
2022/02/02 11:16:24;;;;;;;0.10;0.10;;;7.70;99.90;;;;;;5035980;28;20406;-82
2022/02/02 11:18:53;;;;;;;0.10;0.10;;;7.80;99.90;;;;;;5051456;28;20498;-82
2022/02/02 11:21:31;;;;;;;0.10;0.10;;;7.90;99.90;;;;;;5052172;28;20432;-83
2022/02/02 11:23:59;;;;;;;0.10;0.10;;;7.80;99.90;;;;;;5058908;28;20037;-87
2022/02/02 11:26:46;;;;;;;0.10;0.10;;;7.80;99.90;;;;;;5055607;28;20405;-87
2022/02/02 11:29:40;;;;;;;0.10;0.10;;;7.70;99.90;;;;;;5071323;28;20061;-82
2022/02/02 11:32:13;;;;;;;0.08;0.08;;;7.80;99.90;;;;;;5080723;28;20075;-82
2022/02/02 11:34:40;;;;;;;0.00;0.00;;;7.70;99.90;;;;;;5070708;28;20041;-86
2022/02/02 11:37:09;;;;;;;0.10;0.10;;;7.80;99.90;;;;;;5062972;28;20041;-86
2022/02/02 11:39:47;;;;;;;0.10;0.10;;;7.80;99.90;;;;;;5054402;28;20029;-87
2022/02/02 11:45:53;;;;;;;0.10;0.10;;;7.90;99.90;;;;;;5047477;28;20049;-82
2022/02/02 11:48:52;;;;;;;0.00;0.00;;;8.00;99.90;;;;;;5051570;28;20053;-86
2022/02/02 11:51:39;;;;;;;0.10;0.10;;;7.90;99.90;;;;;;5068737;28;20052;-86
2022/02/02 11:54:31;;;;;;;0.10;0.10;;;7.80;99.90;;;;;;5056699;28;20045;-87
2022/02/02 11:57:02;;;;;;;0.10;0.10;;;7.60;99.90;;;;;;5077014;28;20171;-87
2022/02/02 12:47:01;;;;;;;0.10;0.10;;;7.70;99.90;;;;;;5049938;28;20048;-79
2022/02/02 12:57:26;;;;;;;0.00;0.00;;;7.60;99.90;;;;;;5053804;28;20095;-86
2022/02/02 13:00:07;;;;;;;0.10;0.10;;;7.60;99.90;;;;;;5051855;28;20048;-92
2022/02/02 13:02:42;;;;;;;0.00;0.00;;;7.50;99.90;;;;;;5051726;28;20041;-92
2022/02/02 13:05:10;;;;;;;0.03;0.03;;;7.50;99.90;;;;;;5051358;28;20042;-92
2022/02/02 13:07:40;;;;;;;0.10;0.10;;;7.60;99.90;;;;;;5068917;28;20037;-86
2022/02/02 13:10:09;;;;;;;0.10;0.10;;;7.50;99.90;;;;;;5052115;28;20045;-87
2022/02/02 13:18:03;;;;;;;0.00;0.00;;;7.60;99.90;;;;;;5068285;28;20142;-93
2022/02/02 13:20:58;;;;;;;0.10;0.10;;;7.60;99.90;;;;;;5051392;28;20128;-87
2022/02/02 13:26:27;;;;;;;0.00;0.00;;;7.60;99.90;;;;;;5067096;28;20064;-86
2022/02/02 13:29:28;;;;;;;0.10;0.10;;;7.60;99.90;;;;;;5050972;28;20046;-87
2022/02/02 13:32:07;;;;;;;0.00;0.00;;;7.60;99.90;;;;;;5051587;28;20048;-87
2022/02/02 13:53:56;;;;;;;0.10;0.10;;;7.60;99.90;;;;;;5066235;28;20107;-86
2022/02/02 14:31:09;;;;;;;0.00;0.00;;;7.30;99.90;;;;;;5067371;28;20046;-86
2022/02/02 14:33:41;;;;;;;0.00;0.00;;;7.30;99.90;;;;;;5050541;28;20048;-92
2022/02/02 14:36:10;;;;;;;0.00;0.00;;;7.20;99.90;;;;;;5051074;28;20030;-86
2022/02/02 14:38:50;;;;;;;0.03;0.03;;;7.20;99.90;;;;;;5050283;28;20030;-86
2022/02/02 14:41:25;;;;;;;0.10;0.10;;;7.20;99.90;;;;;;5053323;28;20041;-86
2022/02/02 14:44:02;;;;;;;0.03;0.03;;;7.20;99.90;;;;;;5049230;28;20040;-91
2022/02/02 14:46:40;;;;;;;0.10;0.10;;;7.20;99.90;;;;;;5040656;28;20069;-90
2022/02/02 14:49:16;;;;;;;0.00;0.00;;;7.20;99.90;;;;;;5049758;28;20045;-89
2022/02/02 15:05:38;;;;;;;0.10;0.10;;;7.30;99.90;;;;;;5056797;28;20045;-86
2022/02/02 15:25:02;;;;;;;0.10;0.10;;;7.30;99.90;;;;;;5056075;28;20037;-92
2022/02/02 15:32:18;;;;;;;0.00;0.00;;;7.20;99.90;;;;;;5068860;28;20049;-88
2022/02/02 15:34:52;;;;;;;0.10;0.10;;;7.20;99.90;;;;;;5052494;28;20049;-82
2022/02/02 15:40:00;;;;;;;0.10;0.10;;;7.20;99.90;;;;;;5069930;28;20053;-90
2022/02/02 15:59:03;;;;;;;0.10;0.10;;;7.10;99.90;;;;;;5053155;28;20701;-83
2022/02/02 16:04:23;;;;;;;0.10;0.10;;;7.00;99.90;;;;;;5078324;28;20037;-89
2022/02/02 16:06:50;;;;;;;0.10;0.10;;;6.90;99.90;;;;;;5062134;28;20144;-88
2022/02/02 16:09:27;;;;;;;0.00;0.00;;;6.80;99.90;;;;;;5035716;28;20090;-83
2022/02/02 16:12:07;;;;;;;0.00;0.00;;;6.80;99.90;;;;;;5053947;28;20132;-89
2022/02/02 16:14:48;;;;;;;0.10;0.10;;;6.60;99.90;;;;;;5057629;28;20441;-88
2022/02/02 16:31:37;;;;;;;0.10;0.10;;;6.30;99.90;;;;;;5053903;28;20053;-83
2022/02/02 16:36:47;;;;;;;0.10;0.10;;;6.10;99.90;;;;;;5053509;28;20057;-85
2022/02/02 16:39:21;;;;;;;0.10;0.10;;;6.10;99.90;;;;;;5035195;28;20092;-90
2022/02/02 16:44:33;;;;;;;0.10;0.10;;;6.30;99.90;;;;;;5073687;28;20051;-87
2022/02/02 16:47:00;;;;;;;0.10;0.10;;;5.80;99.90;;;;;;5053592;28;20413;-82
2022/02/02 16:49:26;;;;;;;0.10;0.10;;;5.70;99.90;;;;;;5054085;28;20048;-83
2022/02/02 16:51:53;;;;;;;0.10;0.10;;;5.60;99.90;;;;;;5070591;28;20067;-82
2022/02/02 16:54:33;;;;;;;0.10;0.10;;;5.60;99.90;;;;;;5070501;28;20032;-83
2022/02/02 16:57:13;;;;;;;0.10;0.10;;;6.00;99.90;;;;;;5070705;28;20075;-87
2022/02/02 17:32:58;;;;;;;0.10;0.10;;;4.50;99.90;;;;;;5049265;28;20556;-86
2022/02/02 17:38:10;;;;;;;0.10;0.10;;;4.40;99.90;;;;;;5051154;28;20387;-86
2022/02/02 17:40:51;;;;;;;0.10;0.10;;;4.40;99.90;;;;;;5035178;28;20041;-86
2022/02/02 18:21:08;;;;;;;0.10;0.10;;;4.10;99.90;;;;;;5049947;28;20401;-91
2022/02/02 18:26:24;;;;;;;0.10;0.10;;;4.10;99.90;;;;;;5060058;28;20503;-83
2022/02/02 18:29:00;;;;;;;0.10;0.10;;;4.10;99.90;;;;;;5048529;28;20490;-85
2022/02/02 18:45:54;;;;;;;0.10;0.10;;;3.90;99.90;;;;;;5054006;28;20046;-85
2022/02/02 18:54:17;;;;;;;0.10;0.10;;;3.90;99.90;;;;;;5054313;28;20135;-86
2022/02/02 18:59:36;;;;;;;0.10;0.10;;;3.90;99.90;;;;;;5053025;28;20033;-83
2022/02/02 19:02:15;;;;;;;0.10;0.10;;;3.90;99.90;;;;;;5033315;28;20041;-83
2022/02/02 19:05:16;;;;;;;0.10;0.10;;;3.80;99.90;;;;;;5023437;28;20076;-85
2022/02/02 19:38:16;;;;;;;;;;;3.70;99.90;;;;;;5053952;28;20038;-85
2022/02/02 20:02:27;;;;;;;0.10;0.10;;;4.00;99.90;;;;;;5067758;28;19925;-83
2022/02/02 20:07:41;;;;;;;0.10;0.10;;;4.10;99.90;;;;;;5067631;28;20037;-85
2022/02/02 20:12:39;;;;;;;0.10;0.10;;;4.20;99.90;;;;;;5067983;28;20056;-84
2022/02/02 20:15:10;;;;;;;0.10;0.10;;;4.50;99.90;;;;;;5050371;28;20038;-86
2022/02/02 20:17:38;;;;;;;0.10;0.10;;;4.20;99.90;;;;;;5049834;28;20048;-84
2022/02/02 20:20:14;;;;;;;0.10;0.10;;;4.20;99.90;;;;;;5051118;28;20045;-84
2022/02/02 20:22:43;;;;;;;0.10;0.10;;;4.20;99.90;;;;;;5034729;28;21559;-84
2022/02/02 20:25:11;;;;;;;0.10;0.10;;;4.20;99.90;;;;;;5051331;28;20473;-83
2022/02/02 20:27:38;;;;;;;0.20;0.20;;;4.80;99.90;;;;;;5050729;28;20482;-84
2022/02/02 20:30:10;;;;;;;0.10;0.10;;;4.20;99.90;;;;;;5050528;28;20041;-84
2022/02/02 20:32:37;;;;;;;0.10;0.10;;;4.20;99.90;;;;;;5067005;28;20418;-88
2022/02/02 20:35:04;;;;;;;0.10;0.10;;;4.30;99.90;;;;;;5050780;28;20049;-85
2022/02/02 20:37:31;;;;;;;0.10;0.10;;;4.30;99.90;;;;;;5050549;28;20037;-84
2022/02/02 20:40:03;;;;;;;0.10;0.10;;;4.30;99.90;;;;;;5034826;28;20068;-86
2022/02/02 20:42:38;;;;;;;0.10;0.10;;;4.40;99.90;;;;;;5058183;28;20511;-85
2022/02/02 21:02:54;;;;;;;0.10;0.10;;;5.20;99.90;;;;;;5066941;28;20103;-83
2022/02/02 21:09:59;;;;;;;0.10;0.10;;;4.40;99.90;;;;;;5072509;28;20524;-84
2022/02/02 21:15:15;;;;;;;0.10;0.10;;;4.60;99.90;;;;;;5066154;28;20140;-85
2022/02/02 21:17:42;;;;;;;0.10;0.10;;;4.50;99.90;;;;;;5049517;28;20417;-86
2022/02/02 21:22:48;;;;;;;0.10;0.10;;;4.60;99.90;;;;;;5050205;28;20037;-84
2022/02/02 21:28:03;;;;;;;0.05;0.05;;;4.60;99.90;;;;;;5066405;28;20049;-85
2022/02/02 21:30:31;;;;;;;0.10;0.10;;;4.60;99.90;;;;;;5049830;28;20064;-85
2022/02/02 21:32:58;;;;;;;0.13;0.13;;;5.00;99.90;;;;;;5049971;28;20060;-83
2022/02/02 21:35:26;;;;;;;0.10;0.10;;;4.70;99.90;;;;;;5066425;28;20382;-83
2022/02/02 21:38:01;;;;;;;0.10;0.10;;;4.70;99.90;;;;;;5049636;28;21084;-86
2022/02/02 21:40:29;;;;;;;0.10;0.10;;;4.70;99.90;;;;;;5049731;28;20422;-83
2022/02/02 21:42:57;;;;;;;0.10;0.10;;;4.70;99.90;;;;;;5056269;28;20116;-86
2022/02/02 21:45:26;;;;;;;0.10;0.10;;;4.70;99.90;;;;;;5068421;28;20029;-83
2022/02/02 21:47:54;;;;;;;0.10;0.10;;;4.80;99.90;;;;;;5049687;28;20045;-86
2022/02/02 21:50:21;;;;;;;0.10;0.10;;;4.80;99.90;;;;;;5049200;28;20064;-86
2022/02/02 21:52:50;;;;;;;0.10;0.10;;;4.80;99.90;;;;;;5065704;28;20049;-85
2022/02/02 21:55:17;;;;;;;0.10;0.10;;;4.90;99.90;;;;;;5032800;28;20187;-86
2022/02/02 21:57:45;;;;;;;0.10;0.10;;;4.90;99.90;;;;;;5032757;28;20037;-85
2022/02/02 22:00:13;;;;;;;0.10;0.10;;;4.90;99.90;;;;;;5049460;28;20120;-84
2022/02/02 22:02:41;;;;;;;0.20;0.20;;;5.00;99.90;;;;;;5065930;28;20045;-85
2022/02/02 22:05:09;;;;;;;0.10;0.10;;;5.00;99.90;;;;;;5049901;28;20073;-85
2022/02/02 22:07:36;;;;;;;0.10;0.10;;;5.10;99.90;;;;;;5049806;28;20037;-85
2022/02/02 22:10:06;;;;;;;0.10;0.10;;;5.10;99.90;;;;;;5049376;28;20045;-83
2022/02/02 22:12:36;;;;;;;0.10;0.10;;;5.10;99.90;;;;;;5050130;28;20068;-84
2022/02/02 22:15:08;;;;;;;0.10;0.10;;;5.10;99.90;;;;;;5056482;28;20037;-86
2022/02/02 22:17:35;;;;;;;0.10;0.10;;;5.20;99.90;;;;;;5066725;28;20040;-84
2022/02/02 22:20:06;;;;;;;0.10;0.10;;;5.20;99.90;;;;;;5067167;28;20437;-84
2022/02/02 22:22:33;;;;;;;0.10;0.10;;;5.20;99.90;;;;;;5067378;28;20418;-87
2022/02/02 22:25:01;;;;;;;0.10;0.10;;;5.20;99.90;;;;;;5049501;28;20037;-84
2022/02/02 22:27:27;;;;;;;0.10;0.10;;;5.20;99.90;;;;;;5050040;28;20094;-87
2022/02/02 22:29:54;;;;;;;0.10;0.10;;;5.20;99.90;;;;;;5066711;28;20430;-84
2022/02/02 22:32:21;;;;;;;0.10;0.10;;;5.50;99.90;;;;;;5040492;28;20121;-84
2022/02/02 22:34:48;;;;;;;0.10;0.10;;;5.20;99.90;;;;;;5065784;28;20037;-88
2022/02/02 22:37:14;;;;;;;0.10;0.10;;;5.20;99.90;;;;;;5035081;28;20183;-88
2022/02/02 22:39:43;;;;;;;0.10;0.10;;;5.20;99.90;;;;;;5033994;28;20049;-90
2022/02/02 22:42:12;;;;;;;0.10;0.10;;;5.70;99.90;;;;;;5034909;28;20046;-90
2022/02/02 22:44:39;;;;;;;0.10;0.10;;;5.20;99.90;;;;;;5045730;28;20494;-84
2022/02/02 22:47:08;;;;;;;0.10;0.10;;;5.20;99.90;;;;;;5013925;28;20411;-84
2022/02/02 22:49:37;;;;;;;0.10;0.10;;;5.20;99.90;;;;;;5013905;28;20119;-90
2022/02/02 22:52:05;;;;;;;0.10;0.10;;;5.20;99.90;;;;;;5029840;28;20518;-89
2022/02/02 22:54:32;;;;;;;0.10;0.10;;;5.20;99.90;;;;;;5013392;28;20042;-83
2022/02/02 22:57:02;;;;;;;0.10;0.10;;;5.30;99.90;;;;;;5015106;28;20068;-84
2022/02/02 22:59:28;;;;;;;0.17;0.17;;;5.30;99.90;;;;;;5050261;28;20083;-84
2022/02/02 23:02:02;;;;;;;0.10;0.10;;;5.20;99.90;;;;;;5052974;28;20040;-88
2022/02/02 23:04:29;;;;;;;0.10;0.10;;;5.30;99.90;;;;;;5066679;28;20415;-84
2022/02/02 23:07:01;;;;;;;0.10;0.10;;;5.30;99.90;;;;;;5068722;28;20130;-83
2022/02/02 23:09:28;;;;;;;0.10;0.10;;;5.40;99.90;;;;;;5069908;28;20095;-84
2022/02/02 23:11:55;;;;;;;0.00;0.00;;;5.40;99.90;;;;;;5068927;28;20501;-84
2022/02/02 23:14:26;;;;;;;0.10;0.10;;;5.80;99.90;;;;;;5053445;28;20056;-88
2022/02/02 23:16:55;;;;;;;0.10;0.10;;;6.10;99.90;;;;;;5053405;28;20099;-84
2022/02/02 23:19:22;;;;;;;0.10;0.10;;;5.40;99.90;;;;;;5068903;28;20037;-87
2022/02/02 23:21:49;;;;;;;0.20;0.20;;;5.60;99.90;;;;;;5069406;28;20098;-87
2022/02/02 23:24:17;;;;;;;0.05;0.05;;;5.50;99.90;;;;;;5053886;28;20033;-88
2022/02/02 23:26:46;;;;;;;0.10;0.10;;;5.40;99.90;;;;;;5073124;28;20132;-84
2022/02/02 23:29:16;;;;;;;0.10;0.10;;;5.60;99.90;;;;;;5056976;28;20048;-83
2022/02/02 23:31:44;;;;;;;0.10;0.10;;;5.50;99.90;;;;;;5073692;28;20563;-88
2022/02/02 23:34:13;;;;;;;0.10;0.10;;;5.80;99.90;;;;;;5074487;28;20051;-88
2022/02/02 23:36:40;;;;;;;0.10;0.10;;;5.50;99.90;;;;;;5057017;28;20628;-84
2022/02/02 23:39:07;;;;;;;0.10;0.10;;;5.50;99.90;;;;;;5072693;28;20037;-84
2022/02/02 23:44:07;;;;;;;0.10;0.10;;;5.60;99.90;;;;;;5073418;28;20095;-89
2022/02/02 23:46:38;;;;;;;0.10;0.10;;;5.60;99.90;;;;;;5056531;28;20041;-84
2022/02/02 23:49:16;;;;;;;0.10;0.10;;;5.60;99.90;;;;;;5071756;28;20044;-84
2022/02/02 23:51:47;;;;;;;0.10;0.10;;;5.60;99.90;;;;;;5057015;28;20491;-83
2022/02/02 23:54:16;;;;;;;0.10;0.10;;;5.60;99.90;;;;;;5072170;28;20095;-83
2022/02/02 23:59:22;;;;;;;0.10;0.10;;;5.80;99.90;;;;;;5071347;28;20555;-83
